EDTY weather

Adolf Würth Airport
Schwäbisch Hall, Baden-Württemberg, Germany

Public forecast

Using degrees Celsius for public forecast. Weather courtesy of forecast.io.

METAR (pilot weather report)

Retrieved 2019/09/15 12:20 UTC (34 minutes ago):

EDTY 151220Z 26009KT 230V290 9999 FEW037 25/14 Q1024

TAF (pilot weather forecast)

Forecast is more than 12 hours old.

Closest forecast is Niederstetten Army Air Base, 17.8 nm (33.0 km) NNE. Retrieved 2014/02/20 12:36 UTC (6 years ago):

TAF TAF ETHN 201100Z 2012/2024 21008KT 9999 NSW SCT020